Time;durP1;ratioP1;P1;durP2;ratioP2;P2;SDS_P1;SDS_P2;PMS_P1;PMS_P2;Temp;Humidity;BMP_temperature;BMP_pressure;BME280_temperature;BME280_humidity;BME280_pressure;Samples;Min_cycle;Max_cycle;Signal;HPM_P1;HPM_P2
2023/09/04 00:00:21;;;;;;;4.15;3.78;;;19.00;60.30;;;;;;4992513;28;20531;-49
2023/09/04 00:02:48;;;;;;;4.28;3.90;;;19.00;60.00;;;;;;4993770;28;20080;-51
2023/09/04 00:05:18;;;;;;;5.55;4.50;;;19.00;60.10;;;;;;4992567;28;20408;-49
2023/09/04 00:07:49;;;;;;;4.35;3.72;;;18.90;60.20;;;;;;4992401;28;20134;-48
2023/09/04 00:10:17;;;;;;;3.92;3.53;;;18.90;60.20;;;;;;4993325;28;20493;-48
2023/09/04 00:12:46;;;;;;;5.45;4.18;;;18.80;60.20;;;;;;4993722;28;20145;-50
2023/09/04 00:15:19;;;;;;;3.80;3.50;;;18.80;60.20;;;;;;4993031;28;20065;-47
2023/09/04 00:17:50;;;;;;;5.75;3.70;;;18.70;60.30;;;;;;4992282;28;20085;-51
2023/09/04 00:20:20;;;;;;;5.35;3.33;;;18.70;60.30;;;;;;4992728;28;20528;-51
2023/09/04 00:22:46;;;;;;;4.18;3.50;;;18.70;60.30;;;;;;4993550;28;20501;-50
2023/09/04 00:25:13;;;;;;;3.78;3.47;;;18.70;60.30;;;;;;4992032;28;20045;-51
2023/09/04 00:27:42;;;;;;;3.63;3.33;;;18.60;60.40;;;;;;4992421;28;20253;-50
2023/09/04 00:30:16;;;;;;;4.07;3.78;;;18.50;60.30;;;;;;4991912;28;20522;-49
2023/09/04 00:32:46;;;;;;;4.57;4.15;;;18.50;60.30;;;;;;4991719;28;20068;-51
2023/09/04 00:35:15;;;;;;;5.22;3.97;;;18.50;60.40;;;;;;4991109;28;20042;-50
2023/09/04 00:37:46;;;;;;;4.03;3.70;;;18.50;60.60;;;;;;4992266;28;20121;-49
2023/09/04 00:40:14;;;;;;;5.45;3.97;;;18.40;60.50;;;;;;4989130;28;20050;-51
2023/09/04 00:42:41;;;;;;;4.43;3.88;;;18.30;60.50;;;;;;4992838;28;20074;-50
2023/09/04 00:45:11;;;;;;;4.30;3.72;;;18.30;60.70;;;;;;4991259;28;20058;-48
2023/09/04 00:47:40;;;;;;;4.97;4.15;;;18.30;60.90;;;;;;4991143;28;20100;-46
2023/09/04 00:50:10;;;;;;;4.75;4.25;;;18.20;60.90;;;;;;4985098;28;20055;-51
2023/09/04 00:52:38;;;;;;;4.13;3.83;;;18.30;60.90;;;;;;4988221;28;20136;-50
2023/09/04 00:55:14;;;;;;;3.72;3.42;;;18.20;60.90;;;;;;4986564;28;20423;-51
2023/09/04 00:57:42;;;;;;;4.13;3.72;;;18.20;60.90;;;;;;4990973;28;20045;-49
2023/09/04 01:00:12;;;;;;;3.97;3.65;;;18.20;60.90;;;;;;4987503;28;20046;-48
2023/09/04 01:02:40;;;;;;;4.10;3.40;;;18.10;60.80;;;;;;4991819;28;20052;-49
2023/09/04 01:05:07;;;;;;;4.38;3.97;;;18.10;60.90;;;;;;4980889;28;20034;-46
2023/09/04 01:07:40;;;;;;;4.50;4.10;;;18.00;61.20;;;;;;4981243;28;20050;-50
2023/09/04 01:10:09;;;;;;;3.60;3.20;;;18.10;61.40;;;;;;4991330;28;20092;-51
2023/09/04 01:12:42;;;;;;;4.32;3.83;;;18.10;61.40;;;;;;4992574;28;20416;-48
2023/09/04 01:15:13;;;;;;;3.78;3.47;;;18.00;61.20;;;;;;4990716;28;20475;-51
2023/09/04 01:17:42;;;;;;;4.38;3.90;;;18.00;61.20;;;;;;4999278;28;20053;-49
2023/09/04 01:20:30;;;;;;;4.40;4.00;;;18.00;61.20;;;;;;4984885;28;20057;-51
2023/09/04 01:22:59;;;;;;;4.25;3.67;;;18.00;61.70;;;;;;4991050;28;20050;-47
2023/09/04 01:25:45;;;;;;;4.70;3.35;;;17.90;61.10;;;;;;4991293;28;20035;-51
2023/09/04 01:28:25;;;;;;;4.90;3.80;;;17.90;61.50;;;;;;5000542;28;20398;-49
2023/09/04 01:31:27;;;;;;;6.10;3.72;;;17.80;61.40;;;;;;4990122;28;20049;-50
2023/09/04 01:33:59;;;;;;;4.30;3.90;;;17.80;61.50;;;;;;4990818;28;20074;-48
2023/09/04 01:36:29;;;;;;;4.00;3.55;;;17.80;61.30;;;;;;4991133;28;20035;-49
2023/09/04 01:38:59;;;;;;;4.20;3.80;;;17.70;61.20;;;;;;4991209;28;20646;-51
2023/09/04 01:41:27;;;;;;;4.50;4.10;;;17.70;61.40;;;;;;4992217;28;20054;-51
2023/09/04 01:43:57;;;;;;;5.38;3.80;;;17.70;61.20;;;;;;4985575;28;20132;-49
2023/09/04 01:46:24;;;;;;;4.10;3.78;;;17.70;61.40;;;;;;4986224;28;20042;-48
2023/09/04 01:48:51;;;;;;;5.68;3.70;;;17.60;61.30;;;;;;4990847;28;20046;-49
2023/09/04 01:51:18;;;;;;;4.85;3.78;;;17.60;61.30;;;;;;4988341;28;20062;-48
2023/09/04 01:53:45;;;;;;;3.67;3.33;;;17.60;61.40;;;;;;4991183;28;20038;-48
2023/09/04 01:56:14;;;;;;;4.20;3.80;;;17.60;61.50;;;;;;4991592;28;20041;-50
2023/09/04 01:58:46;;;;;;;4.28;3.90;;;17.60;61.60;;;;;;4988800;28;20042;-47
2023/09/04 02:01:14;;;;;;;3.85;3.40;;;17.50;61.60;;;;;;4987142;28;20034;-49
2023/09/04 02:03:46;;;;;;;4.78;4.28;;;17.50;61.50;;;;;;4990996;28;20126;-49
2023/09/04 02:06:16;;;;;;;4.78;3.70;;;17.50;61.80;;;;;;4984912;28;20481;-50
2023/09/04 02:08:47;;;;;;;4.53;3.53;;;17.50;61.70;;;;;;4990322;28;20054;-47
2023/09/04 02:11:16;;;;;;;4.17;3.37;;;17.40;61.60;;;;;;4987505;28;20031;-50
2023/09/04 02:13:45;;;;;;;4.88;3.30;;;17.40;61.60;;;;;;4989911;28;20085;-50
2023/09/04 02:16:12;;;;;;;4.75;3.42;;;17.40;61.80;;;;;;4988542;28;20044;-47
2023/09/04 02:18:39;;;;;;;4.60;3.63;;;17.40;61.80;;;;;;4986430;28;20040;-48
2023/09/04 02:21:09;;;;;;;4.53;3.92;;;17.30;61.90;;;;;;4989838;28;20042;-51
2023/09/04 02:23:36;;;;;;;4.47;4.07;;;17.30;61.90;;;;;;4991603;28;20054;-51
2023/09/04 02:26:02;;;;;;;6.10;4.20;;;17.30;61.90;;;;;;4989165;28;20053;-49
2023/09/04 02:28:31;;;;;;;13.57;5.75;;;17.20;62.10;;;;;;4986279;28;20050;-49
2023/09/04 02:31:06;;;;;;;5.05;4.55;;;17.30;62.10;;;;;;4990894;28;20042;-49
2023/09/04 02:33:38;;;;;;;4.68;4.28;;;17.30;62.40;;;;;;4991403;28;20066;-46
2023/09/04 02:36:08;;;;;;;4.53;4.13;;;17.20;62.20;;;;;;4989228;28;20122;-48
2023/09/04 02:38:37;;;;;;;4.95;4.38;;;17.20;62.20;;;;;;4986998;28;20050;-47
2023/09/04 02:41:04;;;;;;;4.25;3.90;;;17.20;62.30;;;;;;4990819;28;20066;-47
2023/09/04 02:43:31;;;;;;;5.25;4.75;;;17.20;62.40;;;;;;4989182;28;20055;-49
2023/09/04 02:45:58;;;;;;;4.35;3.95;;;17.10;62.20;;;;;;4987245;28;20038;-49
2023/09/04 02:48:25;;;;;;;7.90;4.63;;;17.20;62.40;;;;;;4988926;28;20038;-46
2023/09/04 02:51:00;;;;;;;5.40;4.05;;;17.20;62.30;;;;;;4990342;28;20054;-48
2023/09/04 02:53:32;;;;;;;5.35;4.85;;;17.10;62.60;;;;;;4988413;28;20042;-49
2023/09/04 02:55:59;;;;;;;5.22;4.53;;;17.10;62.70;;;;;;4988744;28;20070;-48
2023/09/04 02:58:30;;;;;;;6.13;4.43;;;17.10;62.20;;;;;;4988931;28;20050;-47
2023/09/04 03:00:57;;;;;;;5.90;5.35;;;17.10;62.40;;;;;;4989262;28;20042;-47
2023/09/04 03:03:24;;;;;;;5.15;4.65;;;17.10;62.40;;;;;;4988716;28;20051;-48
2023/09/04 03:05:53;;;;;;;6.68;5.28;;;17.00;62.50;;;;;;4988595;28;20042;-47
2023/09/04 03:08:20;;;;;;;6.22;5.63;;;17.00;62.60;;;;;;4989573;28;20105;-50
2023/09/04 03:10:46;;;;;;;7.07;6.38;;;17.00;62.70;;;;;;4993862;28;20042;-50
2023/09/04 03:13:15;;;;;;;8.07;6.30;;;17.00;62.80;;;;;;4988981;28;20034;-47
2023/09/04 03:15:44;;;;;;;7.50;6.60;;;17.00;63.00;;;;;;4988305;28;20057;-50
2023/09/04 03:18:13;;;;;;;9.02;6.13;;;16.90;62.90;;;;;;4992232;28;20042;-50
2023/09/04 03:20:40;;;;;;;7.35;6.57;;;16.90;63.00;;;;;;5005168;28;20051;-46
2023/09/04 03:23:08;;;;;;;7.55;6.18;;;16.90;62.90;;;;;;4988905;28;20042;-48
2023/09/04 03:25:39;;;;;;;8.02;6.10;;;16.90;62.90;;;;;;4989563;28;20042;-49
2023/09/04 03:28:09;;;;;;;6.57;5.38;;;16.90;62.80;;;;;;4987854;28;20050;-48
2023/09/04 03:30:38;;;;;;;6.95;5.53;;;16.90;62.80;;;;;;4985809;28;20575;-50
2023/09/04 03:33:07;;;;;;;8.30;5.97;;;16.90;62.70;;;;;;4988587;28;20098;-51
2023/09/04 03:35:38;;;;;;;6.72;6.00;;;16.90;62.70;;;;;;4988527;28;20556;-50
2023/09/04 03:38:13;;;;;;;7.37;5.10;;;16.80;62.70;;;;;;5002034;28;20050;-47
2023/09/04 03:40:40;;;;;;;6.07;4.88;;;16.80;62.70;;;;;;4989796;28;20108;-50
2023/09/04 03:43:06;;;;;;;6.45;5.82;;;16.80;62.70;;;;;;4987969;28;20047;-49
2023/09/04 03:45:34;;;;;;;7.57;6.05;;;16.80;62.80;;;;;;4989799;28;20048;-49
2023/09/04 03:48:02;;;;;;;5.82;5.28;;;16.80;62.70;;;;;;4982652;28;20034;-50
2023/09/04 03:50:33;;;;;;;5.80;5.18;;;16.70;62.60;;;;;;4989531;28;20047;-50
2023/09/04 03:53:01;;;;;;;8.85;6.25;;;16.70;62.80;;;;;;4988066;28;20058;-49
2023/09/04 03:55:29;;;;;;;6.50;5.72;;;16.70;63.40;;;;;;4984872;28;20042;-48
2023/09/04 03:57:58;;;;;;;6.53;5.22;;;16.70;62.80;;;;;;4972492;28;20737;-50
2023/09/04 04:00:29;;;;;;;7.75;5.97;;;16.70;62.80;;;;;;4988468;28;20113;-50
2023/09/04 04:03:02;;;;;;;6.45;5.75;;;16.60;62.60;;;;;;4988897;28;20043;-47
2023/09/04 04:05:39;;;;;;;5.53;5.03;;;16.60;62.60;;;;;;4985871;28;20081;-49
2023/09/04 04:08:08;;;;;;;5.95;5.35;;;16.60;62.80;;;;;;4983056;28;20105;-50
2023/09/04 04:10:37;;;;;;;5.43;4.93;;;16.60;62.80;;;;;;4983277;28;20043;-51
2023/09/04 04:13:04;;;;;;;6.45;4.97;;;16.50;62.90;;;;;;4989485;28;20477;-50
2023/09/04 04:15:31;;;;;;;5.80;5.22;;;16.50;62.80;;;;;;4986814;28;20517;-48
2023/09/04 04:18:00;;;;;;;6.13;5.53;;;16.50;62.80;;;;;;4989052;28;20046;-49
2023/09/04 04:20:30;;;;;;;5.47;4.63;;;16.50;62.90;;;;;;4989527;28;20049;-51
2023/09/04 04:22:58;;;;;;;5.65;5.05;;;16.40;63.00;;;;;;4988385;28;20074;-50
2023/09/04 04:25:25;;;;;;;7.00;5.32;;;16.40;62.90;;;;;;4984477;28;20050;-51
2023/09/04 04:27:58;;;;;;;5.53;5.00;;;16.40;62.90;;;;;;4989380;28;20046;-51
2023/09/04 04:30:28;;;;;;;6.03;5.18;;;16.40;62.90;;;;;;4985632;28;20535;-46
2023/09/04 04:32:55;;;;;;;5.38;4.88;;;16.40;63.00;;;;;;4990087;28;20050;-47
2023/09/04 04:35:22;;;;;;;5.70;4.97;;;16.30;62.90;;;;;;4986996;28;20058;-48
2023/09/04 04:37:48;;;;;;;6.88;5.03;;;16.30;63.00;;;;;;4988684;28;20096;-51
2023/09/04 04:40:26;;;;;;;7.38;5.60;;;16.30;63.00;;;;;;4985935;28;20064;-49
2023/09/04 04:42:58;;;;;;;5.25;4.78;;;16.30;63.50;;;;;;4988222;28;20587;-48
2023/09/04 04:45:26;;;;;;;5.43;4.90;;;16.20;63.10;;;;;;5007214;28;20161;-50
2023/09/04 04:47:57;;;;;;;6.40;5.80;;;16.20;63.10;;;;;;5008165;28;20050;-48
2023/09/04 04:50:24;;;;;;;5.78;5.18;;;16.20;63.40;;;;;;4991537;28;20046;-47
2023/09/04 04:52:51;;;;;;;6.43;4.68;;;16.20;63.60;;;;;;4991918;28;20057;-48
2023/09/04 04:55:20;;;;;;;5.97;4.53;;;16.20;63.70;;;;;;4989134;28;20046;-48
2023/09/04 04:57:50;;;;;;;7.50;4.68;;;16.20;63.70;;;;;;4991052;28;20101;-48
2023/09/04 05:00:17;;;;;;;5.07;4.57;;;16.20;63.70;;;;;;4989068;28;20566;-49
2023/09/04 05:02:48;;;;;;;5.83;4.90;;;16.20;63.70;;;;;;4992641;28;20042;-48
2023/09/04 05:05:17;;;;;;;7.30;4.90;;;16.20;63.80;;;;;;4988236;28;20500;-46
2023/09/04 05:07:44;;;;;;;5.38;4.38;;;16.20;63.90;;;;;;5005219;28;20046;-47
2023/09/04 05:10:13;;;;;;;4.97;4.43;;;16.20;63.80;;;;;;4989356;28;20050;-48
2023/09/04 05:12:41;;;;;;;5.43;4.78;;;16.20;63.90;;;;;;4985770;28;20042;-49
2023/09/04 05:15:08;;;;;;;5.18;4.68;;;16.20;64.00;;;;;;4992100;28;20113;-51
2023/09/04 05:17:35;;;;;;;5.13;4.53;;;16.20;64.10;;;;;;4988596;28;20050;-50
2023/09/04 05:20:03;;;;;;;5.80;5.20;;;16.20;64.20;;;;;;5007016;28;20066;-51
2023/09/04 05:22:31;;;;;;;5.95;5.32;;;16.20;64.30;;;;;;4989663;28;20558;-48
2023/09/04 05:24:58;;;;;;;7.60;5.07;;;16.20;64.40;;;;;;4987056;28;20108;-50
2023/09/04 05:27:24;;;;;;;5.30;4.80;;;16.20;64.50;;;;;;4987069;28;20504;-48
2023/09/04 05:29:51;;;;;;;5.18;4.68;;;16.20;64.70;;;;;;4987976;28;20509;-48
2023/09/04 05:32:18;;;;;;;6.40;5.80;;;16.30;64.90;;;;;;4992875;28;20031;-51
2023/09/04 05:34:44;;;;;;;6.90;5.55;;;16.30;65.00;;;;;;4990580;28;20126;-51
2023/09/04 05:37:12;;;;;;;6.05;5.45;;;16.30;65.00;;;;;;4990671;28;20042;-51
2023/09/04 05:39:38;;;;;;;6.10;5.10;;;16.40;65.20;;;;;;4986523;28;20085;-50
2023/09/04 05:42:05;;;;;;;5.80;4.85;;;16.40;65.30;;;;;;4990497;28;20042;-50
2023/09/04 05:44:32;;;;;;;5.20;4.70;;;16.40;65.40;;;;;;4989558;28;20038;-51
2023/09/04 05:47:00;;;;;;;6.10;4.82;;;16.50;65.40;;;;;;4990529;28;20092;-51
2023/09/04 05:49:26;;;;;;;6.85;4.68;;;16.50;65.40;;;;;;4990627;28;20069;-51
2023/09/04 05:51:54;;;;;;;5.22;4.72;;;16.50;65.40;;;;;;4990032;28;20097;-51
2023/09/04 05:54:22;;;;;;;5.15;4.65;;;16.60;65.50;;;;;;4990328;28;20101;-49
2023/09/04 05:56:49;;;;;;;5.18;4.68;;;16.60;65.60;;;;;;4990224;28;20038;-51
2023/09/04 05:59:16;;;;;;;5.13;4.47;;;16.60;65.60;;;;;;4989067;28;20061;-51
2023/09/04 06:01:43;;;;;;;5.53;4.93;;;16.70;65.70;;;;;;4990421;28;20500;-51
2023/09/04 06:04:11;;;;;;;5.22;4.72;;;16.70;65.80;;;;;;4990445;28;20501;-50
2023/09/04 06:06:38;;;;;;;5.60;4.53;;;16.80;66.00;;;;;;4984207;28;20769;-51
2023/09/04 06:09:06;;;;;;;4.78;4.20;;;16.80;66.00;;;;;;4990023;28;20050;-52
2023/09/04 06:11:32;;;;;;;6.10;4.35;;;16.90;66.10;;;;;;4989969;28;20404;-51
2023/09/04 06:13:59;;;;;;;5.20;4.78;;;16.90;66.30;;;;;;4989789;28;20042;-49
2023/09/04 06:16:28;;;;;;;6.43;4.97;;;16.90;66.30;;;;;;4990827;28;20117;-49
2023/09/04 06:18:55;;;;;;;5.22;4.72;;;17.00;66.40;;;;;;4991701;28;20057;-51
2023/09/04 06:21:22;;;;;;;5.72;4.47;;;17.10;66.50;;;;;;4991569;28;20133;-51
2023/09/04 06:23:48;;;;;;;5.07;4.57;;;17.10;66.60;;;;;;4991138;28;20045;-52
2023/09/04 06:26:15;;;;;;;5.38;4.93;;;17.20;66.80;;;;;;4991013;28;20050;-52
2023/09/04 06:28:42;;;;;;;5.95;5.40;;;17.20;66.90;;;;;;4988020;28;20113;-50
2023/09/04 06:31:08;;;;;;;6.30;4.50;;;17.30;67.10;;;;;;4990928;28;20042;-51
2023/09/04 06:33:37;;;;;;;5.90;5.10;;;17.30;67.40;;;;;;4989248;28;20030;-51
2023/09/04 06:36:05;;;;;;;5.93;5.32;;;17.40;67.80;;;;;;4990798;28;20038;-51
2023/09/04 06:38:32;;;;;;;6.43;5.38;;;17.40;68.20;;;;;;4990725;28;20456;-50
2023/09/04 06:40:58;;;;;;;5.72;5.03;;;17.50;68.30;;;;;;4990155;28;20038;-48
2023/09/04 06:43:29;;;;;;;5.15;4.63;;;17.60;68.50;;;;;;4989176;28;20069;-50
2023/09/04 06:45:58;;;;;;;7.55;5.32;;;17.60;68.60;;;;;;4989027;28;20092;-48
2023/09/04 06:48:26;;;;;;;5.60;5.10;;;17.70;68.60;;;;;;4989918;28;20050;-51
2023/09/04 06:50:55;;;;;;;5.60;5.03;;;17.80;68.90;;;;;;4990412;28;20042;-51
2023/09/04 06:53:21;;;;;;;5.82;4.82;;;17.90;69.40;;;;;;5004476;28;20105;-48
2023/09/04 06:55:50;;;;;;;6.05;4.80;;;17.90;69.40;;;;;;4989307;28;20130;-51
2023/09/04 06:58:17;;;;;;;5.25;4.75;;;18.10;69.40;;;;;;4990102;28;20092;-52
2023/09/04 07:00:43;;;;;;;5.78;4.30;;;18.00;69.20;;;;;;4987167;28;20057;-52
2023/09/04 07:03:10;;;;;;;5.82;4.72;;;18.20;69.30;;;;;;4990164;28;20044;-51
2023/09/04 07:05:37;;;;;;;4.85;4.40;;;18.20;69.30;;;;;;4989173;28;20397;-51
2023/09/04 07:08:06;;;;;;;6.93;4.35;;;18.30;69.40;;;;;;4989863;28;20121;-51
2023/09/04 07:10:33;;;;;;;5.40;4.68;;;18.30;69.40;;;;;;4987717;28;20156;-52
2023/09/04 07:13:01;;;;;;;5.55;5.03;;;18.40;69.60;;;;;;4989584;28;20038;-50
2023/09/04 07:15:28;;;;;;;7.25;4.68;;;18.50;69.90;;;;;;4989307;28;20084;-49
2023/09/04 07:17:59;;;;;;;6.05;4.50;;;18.60;69.90;;;;;;4990281;28;20445;-51
2023/09/04 07:20:27;;;;;;;6.40;4.77;;;18.60;70.00;;;;;;4987315;28;20046;-48
2023/09/04 07:22:54;;;;;;;7.63;4.90;;;18.70;70.10;;;;;;4986651;28;20301;-51
2023/09/04 07:25:40;;;;;;;4.30;3.90;;;18.70;70.20;;;;;;4988925;28;20416;-52
2023/09/04 07:28:07;;;;;;;5.47;4.97;;;18.90;69.90;;;;;;4999422;28;20073;-51
2023/09/04 07:30:33;;;;;;;5.95;4.40;;;18.90;69.80;;;;;;4988676;28;20445;-51
2023/09/04 07:33:00;;;;;;;5.78;4.63;;;19.00;69.70;;;;;;4989569;28;20038;-52
2023/09/04 07:35:28;;;;;;;4.25;3.85;;;19.10;69.80;;;;;;4989390;28;20065;-49
2023/09/04 07:37:56;;;;;;;4.97;4.50;;;19.10;69.60;;;;;;4989419;28;20093;-52
2023/09/04 07:40:23;;;;;;;5.70;4.57;;;19.20;69.50;;;;;;4986992;28;20066;-49
2023/09/04 07:42:49;;;;;;;4.50;3.60;;;19.20;69.50;;;;;;4985953;28;20122;-51
2023/09/04 07:45:16;;;;;;;6.25;4.50;;;19.30;69.50;;;;;;4989369;28;20034;-49
2023/09/04 07:47:43;;;;;;;5.05;4.55;;;19.30;69.30;;;;;;4989789;28;20121;-51
2023/09/04 07:50:11;;;;;;;5.20;3.90;;;19.40;69.10;;;;;;4992538;28;20096;-52
2023/09/04 07:52:37;;;;;;;4.70;3.72;;;19.50;69.10;;;;;;4989660;28;20062;-51
2023/09/04 07:55:05;;;;;;;4.55;4.03;;;19.50;69.20;;;;;;4988655;28;20097;-51
2023/09/04 07:57:33;;;;;;;4.45;3.90;;;19.50;69.10;;;;;;4990174;28;20117;-51
2023/09/04 07:59:59;;;;;;;5.57;3.85;;;19.60;69.10;;;;;;4987758;28;20049;-51
2023/09/04 08:02:26;;;;;;;3.92;3.55;;;19.70;69.10;;;;;;4989029;28;20645;-51
2023/09/04 08:04:53;;;;;;;3.60;3.25;;;19.70;68.70;;;;;;4989210;28;20046;-50
2023/09/04 08:07:19;;;;;;;5.03;4.03;;;19.80;68.80;;;;;;4989806;28;20088;-51
2023/09/04 08:09:46;;;;;;;3.83;3.53;;;19.80;68.80;;;;;;4987912;28;20452;-51
2023/09/04 08:12:13;;;;;;;4.78;3.45;;;19.90;68.90;;;;;;4989051;28;20105;-52
2023/09/04 08:14:39;;;;;;;4.72;3.70;;;19.90;68.80;;;;;;4988394;28;20093;-50
2023/09/04 08:17:06;;;;;;;5.10;3.70;;;20.00;68.50;;;;;;4990359;28;20133;-51
2023/09/04 08:19:33;;;;;;;4.13;3.20;;;20.10;68.90;;;;;;4992607;28;20050;-52
2023/09/04 08:21:59;;;;;;;5.95;3.65;;;20.10;68.80;;;;;;4992054;28;20074;-51
2023/09/04 08:24:26;;;;;;;3.70;3.13;;;20.10;68.20;;;;;;4991774;28;20393;-51
2023/09/04 08:26:53;;;;;;;5.10;3.38;;;20.20;68.00;;;;;;4992855;28;20465;-52
2023/09/04 08:29:20;;;;;;;7.93;3.50;;;20.20;68.10;;;;;;4991742;28;20128;-52
2023/09/04 08:31:47;;;;;;;4.45;3.85;;;20.30;68.10;;;;;;4993434;28;20628;-51
2023/09/04 08:34:14;;;;;;;3.38;3.13;;;20.40;68.10;;;;;;4992306;28;20085;-51
2023/09/04 08:36:42;;;;;;;3.35;2.97;;;20.40;67.70;;;;;;4993438;28;20046;-51
2023/09/04 08:39:08;;;;;;;3.45;3.15;;;20.50;67.70;;;;;;4992167;28;20042;-52
2023/09/04 08:41:36;;;;;;;3.63;2.83;;;20.50;67.60;;;;;;4992204;28;20052;-51
2023/09/04 08:44:04;;;;;;;3.40;3.10;;;20.60;67.50;;;;;;4992217;28;20100;-53
2023/09/04 08:46:35;;;;;;;6.35;3.63;;;20.70;67.30;;;;;;4993472;28;20085;-51
2023/09/04 08:49:02;;;;;;;3.35;3.10;;;20.70;67.00;;;;;;4991811;28;20428;-51
2023/09/04 08:51:30;;;;;;;6.40;2.78;;;20.70;66.70;;;;;;4993248;28;20121;-48
2023/09/04 08:53:57;;;;;;;3.90;2.60;;;20.80;66.60;;;;;;4992268;28;20109;-48
2023/09/04 08:56:29;;;;;;;3.28;2.90;;;20.90;66.70;;;;;;4990951;28;20043;-49
2023/09/04 08:58:56;;;;;;;4.47;3.50;;;20.90;66.70;;;;;;4991267;28;20480;-50
2023/09/04 09:01:26;;;;;;;4.18;3.00;;;21.00;66.60;;;;;;4992764;28;20100;-51
2023/09/04 09:03:53;;;;;;;3.33;3.10;;;21.00;66.20;;;;;;4992066;28;20053;-51
2023/09/04 09:06:20;;;;;;;4.03;3.28;;;21.10;66.10;;;;;;4992858;28;20047;-51
2023/09/04 09:08:50;;;;;;;4.38;2.97;;;21.20;65.70;;;;;;4993556;28;20121;-51
2023/09/04 09:11:21;;;;;;;3.83;2.88;;;21.20;66.00;;;;;;4992019;28;20031;-49
2023/09/04 09:13:48;;;;;;;2.80;2.55;;;21.30;65.40;;;;;;4991316;28;20655;-51
2023/09/04 09:16:19;;;;;;;6.30;2.80;;;21.40;65.30;;;;;;4991928;28;20038;-51
2023/09/04 09:18:49;;;;;;;3.17;2.92;;;21.40;64.90;;;;;;4990952;28;20512;-51
2023/09/04 09:21:29;;;;;;;3.03;2.70;;;21.50;64.60;;;;;;4992199;28;20093;-52
2023/09/04 09:24:16;;;;;;;3.85;2.80;;;21.60;64.30;;;;;;4990261;28;20065;-52
2023/09/04 09:26:46;;;;;;;3.47;3.22;;;21.60;64.40;;;;;;4990483;28;20054;-51
2023/09/04 09:29:14;;;;;;;4.63;2.88;;;21.70;63.90;;;;;;4988399;28;20105;-51
2023/09/04 09:31:44;;;;;;;3.17;2.88;;;21.80;63.50;;;;;;4992488;28;20046;-52
2023/09/04 09:34:12;;;;;;;4.13;2.85;;;21.80;63.70;;;;;;4991991;28;20034;-52
2023/09/04 09:36:39;;;;;;;3.25;3.05;;;22.00;63.90;;;;;;4992172;28;20054;-52
2023/09/04 09:39:06;;;;;;;3.47;3.13;;;22.00;63.40;;;;;;4986842;28;20058;-49
2023/09/04 09:41:35;;;;;;;3.92;3.53;;;22.10;63.20;;;;;;4989325;28;20050;-51
2023/09/04 09:44:03;;;;;;;3.17;2.40;;;22.10;63.40;;;;;;4990799;28;20081;-48
2023/09/04 09:46:36;;;;;;;4.32;3.10;;;22.20;63.10;;;;;;4987351;28;20054;-51
2023/09/04 09:49:05;;;;;;;3.47;2.95;;;22.30;63.20;;;;;;4991051;28;20054;-52
2023/09/04 09:51:32;;;;;;;3.67;2.40;;;22.40;63.10;;;;;;4992088;28;20520;-52
2023/09/04 09:53:59;;;;;;;2.92;2.55;;;22.40;62.80;;;;;;4991283;28;20030;-51
2023/09/04 09:56:29;;;;;;;4.40;2.60;;;22.50;62.40;;;;;;4987251;28;20074;-51
2023/09/04 09:58:57;;;;;;;5.50;3.20;;;22.50;62.40;;;;;;4989900;28;20101;-52
2023/09/04 10:01:27;;;;;;;3.13;2.63;;;22.60;62.70;;;;;;4991482;28;20468;-49
2023/09/04 10:03:55;;;;;;;3.33;3.03;;;22.70;62.20;;;;;;4985908;28;20042;-56
2023/09/04 10:06:23;;;;;;;4.82;2.72;;;22.80;62.50;;;;;;4988301;28;20509;-56
2023/09/04 10:08:52;;;;;;;3.20;2.80;;;22.80;62.00;;;;;;4989088;28;20465;-55
2023/09/04 10:11:22;;;;;;;3.25;2.95;;;22.80;61.70;;;;;;4990259;28;20053;-56
2023/09/04 10:14:16;;;;;;;3.22;2.47;;;22.90;61.20;;;;;;4989966;28;20460;-56
2023/09/04 10:16:49;;;;;;;5.13;2.92;;;23.00;61.10;;;;;;5003025;28;20070;-56
2023/09/04 10:19:18;;;;;;;5.57;3.08;;;23.10;61.20;;;;;;4990581;28;20069;-56
2023/09/04 10:21:54;;;;;;;6.38;2.63;;;23.10;61.90;;;;;;4989092;28;20105;-56
2023/09/04 10:24:30;;;;;;;3.25;2.50;;;23.20;60.40;;;;;;4990169;28;20073;-56
2023/09/04 10:26:59;;;;;;;3.08;2.47;;;23.30;60.80;;;;;;4990006;28;20488;-56
2023/09/04 10:29:29;;;;;;;3.05;2.80;;;23.40;60.90;;;;;;4989065;28;20054;-53
2023/09/04 10:31:57;;;;;;;3.55;3.25;;;23.50;60.80;;;;;;4988413;28;20120;-52
2023/09/04 10:34:24;;;;;;;4.53;2.45;;;23.50;60.10;;;;;;4989263;28;20117;-51
2023/09/04 10:36:53;;;;;;;3.17;2.78;;;23.60;60.10;;;;;;4986558;28;20057;-52
2023/09/04 10:39:21;;;;;;;3.83;2.75;;;23.60;60.30;;;;;;4988550;28;20457;-52
2023/09/04 10:41:48;;;;;;;3.38;2.92;;;23.70;59.60;;;;;;4981496;28;20505;-52
2023/09/04 10:44:44;;;;;;;4.75;2.70;;;23.70;59.50;;;;;;4990702;28;20112;-53
2023/09/04 10:47:12;;;;;;;2.97;2.72;;;23.80;59.30;;;;;;4990985;28;20039;-53
2023/09/04 10:49:39;;;;;;;4.18;2.83;;;23.90;58.80;;;;;;4991467;28;20048;-52
2023/09/04 10:52:06;;;;;;;2.55;2.35;;;23.90;58.50;;;;;;4990161;28;20092;-53
2023/09/04 10:54:33;;;;;;;12.18;3.13;;;24.00;58.30;;;;;;4989409;28;20060;-50
2023/09/04 10:57:05;;;;;;;2.65;2.45;;;24.00;57.90;;;;;;4990206;28;20337;-52
2023/09/04 10:59:53;;;;;;;3.20;2.65;;;24.10;57.60;;;;;;4988950;28;20034;-52
2023/09/04 11:02:33;;;;;;;2.45;2.25;;;24.20;56.70;;;;;;4987279;28;20106;-53
2023/09/04 11:05:01;;;;;;;2.42;2.22;;;24.30;55.90;;;;;;4989972;28;20168;-53
2023/09/04 11:07:30;;;;;;;3.13;1.95;;;24.30;56.70;;;;;;4988420;28;20133;-53
2023/09/04 11:10:17;;;;;;;3.90;2.10;;;24.30;56.60;;;;;;4991289;28;20120;-53
2023/09/04 11:12:45;;;;;;;2.58;2.38;;;24.40;56.70;;;;;;4989783;28;20464;-52
2023/09/04 11:15:16;;;;;;;2.33;2.13;;;24.50;56.20;;;;;;4989661;28;20062;-52
2023/09/04 11:17:50;;;;;;;2.88;2.20;;;24.50;56.30;;;;;;4988726;28;20076;-52
2023/09/04 11:20:22;;;;;;;3.85;2.33;;;24.60;56.30;;;;;;4990830;28;20043;-53
2023/09/04 11:22:48;;;;;;;7.05;2.17;;;24.60;55.40;;;;;;4988040;28;20055;-52
2023/09/04 11:25:16;;;;;;;2.30;2.10;;;24.70;55.90;;;;;;4988604;28;20101;-53
2023/09/04 11:27:44;;;;;;;3.95;2.17;;;24.80;55.40;;;;;;4988977;28;20113;-52
2023/09/04 11:30:12;;;;;;;3.88;2.25;;;24.80;55.20;;;;;;4985264;28;20046;-52
2023/09/04 11:32:40;;;;;;;3.28;2.30;;;24.90;55.60;;;;;;4989163;28;20046;-52
2023/09/04 11:35:12;;;;;;;2.50;2.30;;;25.00;55.00;;;;;;4984382;28;20038;-53
2023/09/04 11:37:39;;;;;;;4.05;2.88;;;25.10;54.10;;;;;;4988781;28;20070;-52
2023/09/04 11:40:06;;;;;;;8.55;2.80;;;25.10;54.00;;;;;;4989802;28;20057;-53
2023/09/04 11:42:33;;;;;;;1.88;1.70;;;25.20;54.10;;;;;;4982141;28;20206;-53
2023/09/04 11:45:00;;;;;;;3.05;2.85;;;25.30;54.30;;;;;;4982653;28;20513;-53
2023/09/04 11:47:27;;;;;;;2.28;2.08;;;25.40;54.10;;;;;;4986540;28;20137;-52
2023/09/04 11:49:55;;;;;;;2.83;1.90;;;25.40;53.50;;;;;;4990162;28;20046;-53
2023/09/04 11:52:26;;;;;;;2.17;1.98;;;25.50;53.20;;;;;;4990793;28;20054;-51
2023/09/04 11:54:53;;;;;;;2.08;1.88;;;25.60;52.70;;;;;;4993467;28;20038;-53
2023/09/04 11:57:23;;;;;;;2.20;2.00;;;25.60;52.30;;;;;;4993101;28;20445;-53
2023/09/04 11:59:50;;;;;;;3.40;2.42;;;25.70;51.80;;;;;;4993749;28;20042;-52
2023/09/04 12:02:17;;;;;;;2.25;2.00;;;25.70;51.60;;;;;;4992863;28;20045;-52
2023/09/04 12:04:46;;;;;;;3.20;2.22;;;25.80;52.50;;;;;;4992236;28;20053;-52
2023/09/04 12:07:14;;;;;;;2.60;2.40;;;25.80;51.40;;;;;;4985548;28;20484;-53
2023/09/04 12:09:41;;;;;;;2.63;2.25;;;25.90;51.70;;;;;;4986397;28;20042;-53
2023/09/04 12:12:08;;;;;;;2.22;2.10;;;25.90;51.60;;;;;;4984181;28;20034;-52
2023/09/04 12:14:35;;;;;;;1.90;1.60;;;26.00;51.50;;;;;;4982777;28;20070;-53
2023/09/04 12:17:10;;;;;;;2.28;2.17;;;26.10;51.40;;;;;;4990789;28;20053;-53
2023/09/04 12:19:37;;;;;;;2.30;2.10;;;26.10;51.40;;;;;;4990236;28;20444;-53
2023/09/04 12:22:11;;;;;;;2.95;2.75;;;26.20;52.00;;;;;;4992341;28;20057;-53
2023/09/04 12:24:38;;;;;;;2.47;2.28;;;26.20;51.40;;;;;;4987207;28;20122;-53
2023/09/04 12:27:05;;;;;;;2.75;2.35;;;26.30;51.80;;;;;;4988813;28;20641;-53
2023/09/04 12:29:34;;;;;;;2.53;2.33;;;26.30;52.10;;;;;;4991513;28;20069;-51
2023/09/04 12:32:02;;;;;;;2.72;2.53;;;26.30;52.40;;;;;;4992370;28;20141;-53
2023/09/04 12:34:30;;;;;;;3.38;2.85;;;26.40;52.90;;;;;;4992452;28;20050;-53
2023/09/04 12:36:57;;;;;;;3.50;2.70;;;26.50;52.30;;;;;;4992178;28;20097;-53
2023/09/04 12:39:24;;;;;;;4.10;2.92;;;26.50;51.60;;;;;;5019303;23;20102;-51
2023/09/04 12:42:01;;;;;;;4.22;3.65;;;26.60;51.90;;;;;;5027412;28;20073;-50
2023/09/04 12:44:28;;;;;;;2.65;2.45;;;26.70;51.60;;;;;;5031190;28;20049;-51
2023/09/04 12:46:54;;;;;;;2.42;2.20;;;26.70;51.00;;;;;;5031159;28;20129;-48
2023/09/04 12:49:22;;;;;;;3.78;2.10;;;26.80;50.20;;;;;;5029472;28;20797;-48
2023/09/04 12:51:49;;;;;;;2.38;2.20;;;26.90;50.10;;;;;;5031899;28;20049;-51
2023/09/04 12:54:16;;;;;;;3.40;2.17;;;27.00;50.00;;;;;;5024605;28;20759;-53
2023/09/04 12:56:43;;;;;;;2.10;1.90;;;27.10;49.30;;;;;;5031423;28;20064;-52